Airfield :
LOGIN :

Register | Disclaimer

   EN    FR    IT 

 










Legend :    VFR   Marginal VFR   IFR   Intensive IFR   Very Intensive IFR
Visi :
Ceiling :
>= 8 km
>= 3000ft
5 to 8 km
1000 to 3000 ft
1500m to 5 km
500 to 1000 ft
800 to 1500m
200 to 500 ft
< 800m
< 200 ft
Symbols :   Thunderstorms  Fog  Heavy snow  Heavy precipitations  Wind > 20 kt
SIGMETs :     Misc.  Thunderstorms  Icing  Turbulence  Mountain Waves  Volcanic Ashes






- Airport Elevation : 266 ft
- IATA code : NCL


EGNT - Newcastle

CURRENT METAR :
  • 192350Z 21009KT 9999 -RA BKN026 09/07 Q1001

EXPIRED METARs :
  • 192320Z 21011KT 180V240 9999 -RA BKN030 09/07 Q1001
  • 192250Z 22011KT 180V240 9999 BKN030 09/07 Q1001
  • 192220Z 22011KT 180V250 9999 BKN026 09/07 Q1001
  • 192150Z 22011KT 9999 SCT026 09/07 Q1001
  • 192120Z 22012KT 190V250 9999 SCT031 09/07 Q1001

TAF TAF EGNT
Valid from the 20 at 00:00 until the 21 at 00:00 UTC


192301Z 2000/2024 21012KT 9999 FEW015 SCT022
PROB30
TEMPO 2000/2009 23015G25KT 6000 -RA BKN014
TEMPO 2009/2013 23015G25KT 5000 RA BKN012
PROB30
TEMPO 2009/2013 25025G37KT 3000 +RA BKN008
BECMG 2010/2013 28018G28KT
PROB30
TEMPO 2013/2024 6000 SHRA -SHRASN
ATIS : +44 191 214 3400



MET'MAP, your aeronautical weather chart ! - Copyright ORBIFLY December 2007 - Disclaimer

ORBIFLY MET'MAP TEAM :

Programming & Development : Alexandra Zaïnal
Concept & original design : Baudouin d'Aumeries
Assistance for programming : Marc-Olivier Méhu
Technical & hardware support : Manuel Goepfert

Contact : metmap@orbifly.com




SOURCES & CREDITS :

   NOAA